Goring, United Kingdom
Current Conditions -  °F | °C
As of 3:50 PM on Thursday 27 Nov 2014 (Local Time) from EGUB Reporting Station
Broken Clouds Broken Clouds  
Wind Chill: 46°   Ceiling: 5000
Heat Index: 48°   Visibility: 6mi
Dew Point: 45°   Wind: 6mph
Humidity: 87%   Direction: 180°S
Pressure: 29.56"   Gusts: NA
Location:  51.52°N, 1.13°W
Report Text: EGUB 271550Z 18005KT 9999 FEW030 BKN050 09/07 Q1001 BLU NOSIG
Loading
Personal Weather Stations






























Interactive Weather Map New forecast layout! Learn more

10-Day Weather Forecast

Advertisements
Track Severe Weather on mobile